createdAt,value
2019-05-09T00:00:14.987Z,8.87
2019-05-09T00:02:44.485Z,7.83
2019-05-09T00:05:14.143Z,7.10
2019-05-09T00:07:43.994Z,6.57
2019-05-09T00:10:14.305Z,6.90
2019-05-09T00:12:43.870Z,6.17
2019-05-09T00:15:13.734Z,5.30
2019-05-09T00:17:43.925Z,5.27
2019-05-09T00:20:33.199Z,5.30
2019-05-09T00:23:03.319Z,5.47
2019-05-09T00:25:33.997Z,5.27
2019-05-09T00:28:04.357Z,5.63
2019-05-09T00:30:51.282Z,4.90
2019-05-09T00:33:24.999Z,4.73
2019-05-09T00:35:54.438Z,4.80
2019-05-09T00:38:24.464Z,4.40
2019-05-09T00:40:58.606Z,4.47
2019-05-09T00:43:25.030Z,4.50
2019-05-09T00:46:14.112Z,4.20
2019-05-09T00:49:04.894Z,4.30
2019-05-09T00:51:33.966Z,4.90
2019-05-09T00:54:04.181Z,5.27
2019-05-09T00:56:33.732Z,5.03
2019-05-09T00:59:04.252Z,5.57
2019-05-09T01:01:34.311Z,4.90
2019-05-09T01:04:04.467Z,5.33
2019-05-09T01:06:34.173Z,5.10
2019-05-09T01:09:05.576Z,5.90
2019-05-09T01:11:34.948Z,4.37
2019-05-09T01:14:04.592Z,4.57
2019-05-09T01:16:33.973Z,4.83
2019-05-09T01:19:03.803Z,4.70
2019-05-09T01:21:33.487Z,4.90
2019-05-09T01:24:03.517Z,4.57
2019-05-09T01:26:33.461Z,4.50
2019-05-09T01:29:04.390Z,4.80
2019-05-09T01:31:34.077Z,4.43
2019-05-09T01:34:17.154Z,4.10
2019-05-09T01:37:08.320Z,4.77
2019-05-09T01:39:37.902Z,5.10
2019-05-09T01:42:07.279Z,5.67
2019-05-09T01:44:36.759Z,5.50
2019-05-09T01:47:06.237Z,4.97
2019-05-09T01:49:35.662Z,4.80
2019-05-09T01:52:05.254Z,5.00
2019-05-09T01:54:36.587Z,6.07
2019-05-09T01:57:05.967Z,5.67
2019-05-09T01:59:35.412Z,5.33
2019-05-09T02:02:09.023Z,5.37
2019-05-09T02:04:36.196Z,5.50
2019-05-09T02:07:05.557Z,5.30
2019-05-09T02:09:34.978Z,6.43
2019-05-09T02:12:04.410Z,6.20
2019-05-09T02:14:49.488Z,7.07
2019-05-09T02:17:57.359Z,7.00
2019-05-09T02:20:13.658Z,7.23
2019-05-09T02:22:43.580Z,7.10
2019-05-09T02:25:13.774Z,7.70
2019-05-09T02:27:43.626Z,7.37
2019-05-09T02:30:15.433Z,7.60
2019-05-09T02:32:45.422Z,6.93
2019-05-09T02:35:15.059Z,6.93
2019-05-09T02:37:44.478Z,7.13
2019-05-09T02:40:18.477Z,7.67
2019-05-09T02:42:49.026Z,7.10
2019-05-09T02:45:19.180Z,7.20
2019-05-09T02:47:49.183Z,6.63
2019-05-09T02:50:19.508Z,7.17
2019-05-09T02:52:49.127Z,7.47
2019-05-09T02:55:18.766Z,7.47
2019-05-09T02:57:49.836Z,6.60
2019-05-09T03:00:39.842Z,8.20
2019-05-09T03:03:29.509Z,7.60
2019-05-09T03:05:59.891Z,7.63
2019-05-09T03:08:29.776Z,7.87
2019-05-09T03:11:00.489Z,7.33
2019-05-09T03:13:30.250Z,7.53
2019-05-09T03:16:08.594Z,7.07
2019-05-09T03:18:38.856Z,7.37
2019-05-09T03:21:35.015Z,7.33
2019-05-09T03:24:04.437Z,7.27
2019-05-09T03:26:38.602Z,7.30
2019-05-09T03:29:33.054Z,6.53
2019-05-09T03:32:03.691Z,6.77
2019-05-09T03:34:33.149Z,6.50
2019-05-09T03:37:02.537Z,7.03
2019-05-09T03:39:33.085Z,6.90
2019-05-09T03:42:02.517Z,6.63
2019-05-09T03:44:31.919Z,7.47
2019-05-09T03:47:27.612Z,6.20
2019-05-09T03:50:14.756Z,6.40
2019-05-09T03:52:44.129Z,6.77
2019-05-09T03:55:17.973Z,7.50
2019-05-09T03:57:54.173Z,7.17
2019-05-09T04:00:23.610Z,6.77
2019-05-09T04:02:53.172Z,7.23
2019-05-09T04:05:22.663Z,7.23
2019-05-09T04:07:52.013Z,7.03
2019-05-09T04:10:21.478Z,8.03
2019-05-09T04:12:55.848Z,6.87
2019-05-09T04:15:23.209Z,7.80
2019-05-09T04:17:52.578Z,7.57
2019-05-09T04:20:21.975Z,7.00
2019-05-09T04:22:51.340Z,7.10
2019-05-09T04:25:27.365Z,7.00
2019-05-09T04:27:58.296Z,7.27
2019-05-09T04:30:28.104Z,7.70
2019-05-09T04:32:58.187Z,7.13
2019-05-09T04:35:28.067Z,7.30
2019-05-09T04:37:58.411Z,7.37
2019-05-09T04:40:31.693Z,7.60
2019-05-09T04:43:10.797Z,7.13
2019-05-09T04:45:41.871Z,8.60
2019-05-09T04:48:29.815Z,7.47
2019-05-09T04:51:00.202Z,8.90
2019-05-09T04:53:29.995Z,8.07
2019-05-09T04:56:03.914Z,7.87
2019-05-09T04:58:33.379Z,7.77
2019-05-09T05:01:19.593Z,8.47
2019-05-09T05:03:48.369Z,7.30
2019-05-09T05:06:20.314Z,8.57
2019-05-09T05:08:48.853Z,7.37
2019-05-09T05:11:18.284Z,6.70
2019-05-09T05:13:48.136Z,6.80
2019-05-09T05:16:18.467Z,6.30
2019-05-09T05:18:47.922Z,5.47
2019-05-09T05:21:19.939Z,6.77
2019-05-09T05:24:18.474Z,5.40
2019-05-09T05:26:48.475Z,5.60
2019-05-09T05:29:18.271Z,5.63
2019-05-09T05:31:47.817Z,5.07
2019-05-09T05:34:29.105Z,5.50
2019-05-09T05:36:58.528Z,5.63
2019-05-09T05:39:28.473Z,5.83
2019-05-09T05:41:58.312Z,6.17
2019-05-09T05:44:28.452Z,7.50
2019-05-09T05:47:26.205Z,7.67
2019-05-09T05:49:53.930Z,7.13
2019-05-09T05:52:23.285Z,9.93
2019-05-09T05:54:52.675Z,7.80
2019-05-09T05:57:22.072Z,6.50
2019-05-09T05:59:51.459Z,6.47
2019-05-09T06:02:21.018Z,5.90
2019-05-09T06:04:50.473Z,6.10
2019-05-09T06:07:19.917Z,7.00
2019-05-09T06:09:49.300Z,6.50
2019-05-09T06:12:18.732Z,6.57
2019-05-09T06:14:48.194Z,6.60
2019-05-09T06:17:18.183Z,6.80
2019-05-09T06:19:48.161Z,7.73
2019-05-09T06:22:18.285Z,6.07
2019-05-09T06:24:48.224Z,6.70
2019-05-09T06:27:18.293Z,6.50
2019-05-09T06:29:47.902Z,6.90
2019-05-09T06:32:18.811Z,6.77
2019-05-09T06:34:48.895Z,6.73
2019-05-09T06:37:18.520Z,7.67
2019-05-09T06:39:48.621Z,7.70
2019-05-09T06:42:18.379Z,7.27
2019-05-09T06:45:17.970Z,7.47
2019-05-09T06:47:48.697Z,7.87
2019-05-09T06:50:19.539Z,7.13
2019-05-09T06:52:48.848Z,7.30
2019-05-09T06:55:18.224Z,8.57
2019-05-09T06:57:48.854Z,4.63
2019-05-09T07:00:48.995Z,5.33
2019-05-09T07:03:20.850Z,5.90
2019-05-09T07:06:21.347Z,5.73
2019-05-09T07:08:58.314Z,5.40
2019-05-09T07:11:29.495Z,5.60
2019-05-09T07:13:58.960Z,5.50
2019-05-09T07:16:28.313Z,5.97
2019-05-09T07:18:58.021Z,4.20
2019-05-09T07:21:48.515Z,6.00
2019-05-09T07:24:19.737Z,6.97
2019-05-09T07:26:49.153Z,6.60
2019-05-09T07:29:18.552Z,6.30
2019-05-09T07:31:54.696Z,8.47
2019-05-09T07:34:31.930Z,8.50
2019-05-09T07:37:01.594Z,9.73
2019-05-09T07:39:31.017Z,6.87
2019-05-09T07:42:19.582Z,8.60
2019-05-09T07:44:52.288Z,8.73
2019-05-09T07:47:20.235Z,8.27
2019-05-09T07:49:49.885Z,8.57
2019-05-09T07:52:19.393Z,5.37
2019-05-09T07:55:08.885Z,7.93
2019-05-09T07:57:46.788Z,8.37
2019-05-09T08:00:11.815Z,8.73
2019-05-09T08:02:41.515Z,7.77
2019-05-09T08:05:34.005Z,8.47
2019-05-09T08:08:07.302Z,8.17
2019-05-09T08:10:38.571Z,8.20
2019-05-09T08:13:11.809Z,7.67
2019-05-09T08:15:39.300Z,8.20
2019-05-09T08:18:08.873Z,8.73
2019-05-09T08:20:40.603Z,7.77
2019-05-09T08:23:11.542Z,5.70
2019-05-09T08:25:40.957Z,7.77
2019-05-09T08:28:10.342Z,8.37
2019-05-09T08:30:40.477Z,5.50
2019-05-09T08:33:10.189Z,8.37
2019-05-09T08:35:39.560Z,8.33
2019-05-09T08:38:10.008Z,8.30
2019-05-09T08:40:40.781Z,8.37
2019-05-09T08:43:11.947Z,7.87
2019-05-09T08:45:41.326Z,8.10
2019-05-09T08:48:10.654Z,8.60
2019-05-09T08:50:44.387Z,8.67
2019-05-09T08:53:14.901Z,8.20
2019-05-09T08:55:44.323Z,7.73
2019-05-09T08:58:13.881Z,8.37
2019-05-09T09:00:43.306Z,8.93
2019-05-09T09:03:12.768Z,9.20
2019-05-09T09:06:03.830Z,8.47
2019-05-09T09:08:33.276Z,6.93
2019-05-09T09:11:02.687Z,7.83
2019-05-09T09:13:32.105Z,8.37
2019-05-09T09:16:14.332Z,7.17
2019-05-09T09:18:33.860Z,6.60
2019-05-09T09:21:03.306Z,7.57
2019-05-09T09:23:42.855Z,7.93
2019-05-09T09:26:03.848Z,7.70
2019-05-09T09:28:33.341Z,7.10
2019-05-09T09:31:02.691Z,7.97
2019-05-09T09:33:32.089Z,8.47
2019-05-09T09:36:01.622Z,8.17
2019-05-09T09:38:31.055Z,8.10
2019-05-09T09:41:01.064Z,8.57
2019-05-09T09:43:30.583Z,9.07
2019-05-09T09:46:10.512Z,8.13
2019-05-09T09:48:50.128Z,8.20
2019-05-09T09:51:19.640Z,9.13
2019-05-09T09:53:49.227Z,8.97
2019-05-09T09:56:22.409Z,9.23
2019-05-09T09:58:58.601Z,9.43
2019-05-09T10:01:30.012Z,9.90
2019-05-09T10:04:19.401Z,9.00
2019-05-09T10:06:40.984Z,9.10
2019-05-09T10:09:10.637Z,8.90
2019-05-09T10:11:40.997Z,7.70
2019-05-09T10:14:13.467Z,8.10
2019-05-09T10:16:48.536Z,6.30
2019-05-09T10:22:04.905Z,7.87
2019-05-09T10:24:37.225Z,7.70
2019-05-09T10:27:08.738Z,7.70
2019-05-09T10:29:40.788Z,8.10
2019-05-09T10:32:29.283Z,7.77
2019-05-09T10:34:58.727Z,8.53
2019-05-09T10:37:28.093Z,7.60
2019-05-09T10:39:58.232Z,8.27
2019-05-09T10:42:37.914Z,7.73
2019-05-09T10:45:28.438Z,8.03
2019-05-09T10:47:57.882Z,7.87
2019-05-09T10:50:34.116Z,4.83
2019-05-09T10:52:58.664Z,9.00
2019-05-09T10:55:28.435Z,9.20
2019-05-09T10:58:02.273Z,8.27
2019-05-09T11:00:29.021Z,7.87
2019-05-09T11:02:58.869Z,8.77
2019-05-09T11:05:28.276Z,8.30
2019-05-09T11:07:58.747Z,6.63
2019-05-09T11:10:32.372Z,8.23
2019-05-09T11:12:59.539Z,8.00
2019-05-09T11:15:28.948Z,8.40
2019-05-09T11:17:58.303Z,6.00
2019-05-09T11:20:28.406Z,8.40
2019-05-09T11:22:58.360Z,9.40
2019-05-09T11:25:27.944Z,6.83
2019-05-09T11:28:10.097Z,8.73
2019-05-09T11:30:28.524Z,9.70
2019-05-09T11:32:59.787Z,7.00
2019-05-09T11:35:29.120Z,9.83
2019-05-09T11:37:58.814Z,10.30
2019-05-09T11:40:28.532Z,7.93
2019-05-09T11:42:57.975Z,8.70
2019-05-09T11:45:28.274Z,7.93
2019-05-09T11:47:58.384Z,8.03
2019-05-09T11:50:27.990Z,8.07
2019-05-09T11:53:00.009Z,8.43
2019-05-09T11:55:35.741Z,7.53
2019-05-09T11:57:59.641Z,7.53
2019-05-09T12:00:29.555Z,7.93
2019-05-09T12:02:59.415Z,7.50
2019-05-09T12:05:28.995Z,8.03
2019-05-09T12:07:59.459Z,8.60
2019-05-09T12:10:28.870Z,8.70
2019-05-09T12:12:58.456Z,7.53
2019-05-09T12:15:29.189Z,7.87
2019-05-09T12:18:07.472Z,8.37
2019-05-09T12:20:31.166Z,8.37
2019-05-09T12:23:00.516Z,8.77
2019-05-09T12:25:48.984Z,8.03
2019-05-09T12:28:19.030Z,8.17
2019-05-09T12:30:49.051Z,8.60
2019-05-09T12:33:18.825Z,7.87
2019-05-09T12:35:48.277Z,8.80
2019-05-09T12:38:18.082Z,8.60
2019-05-09T12:40:48.299Z,8.30
2019-05-09T12:43:18.592Z,9.23
2019-05-09T12:45:48.104Z,8.53
2019-05-09T12:48:19.673Z,8.97
2019-05-09T12:50:49.037Z,8.87
2019-05-09T12:53:19.043Z,8.97
2019-05-09T12:55:50.106Z,10.30
2019-05-09T12:58:28.449Z,8.90
2019-05-09T13:00:58.942Z,9.60
2019-05-09T13:03:29.328Z,9.33
2019-05-09T13:06:00.338Z,8.57
2019-05-09T13:08:29.901Z,9.77
2019-05-09T13:11:02.344Z,9.93
2019-05-09T13:13:32.277Z,10.90
2019-05-09T13:16:14.152Z,10.13
2019-05-09T13:19:02.567Z,10.37
2019-05-09T13:21:33.045Z,10.37
2019-05-09T13:24:03.149Z,10.73
2019-05-09T13:26:32.603Z,10.63
2019-05-09T13:29:02.476Z,12.47
2019-05-09T13:31:34.639Z,10.53
2019-05-09T13:34:02.988Z,11.57
2019-05-09T13:36:32.496Z,10.43
2019-05-09T13:39:04.994Z,9.57
2019-05-09T13:41:33.093Z,10.30
2019-05-09T13:44:05.929Z,10.73
2019-05-09T13:46:38.601Z,10.83
2019-05-09T13:49:14.311Z,9.87
2019-05-09T13:51:49.854Z,9.60
2019-05-09T13:54:12.496Z,11.40
2019-05-09T13:56:41.965Z,9.83
2019-05-09T13:59:11.405Z,9.77
2019-05-09T14:01:40.839Z,10.53
2019-05-09T14:04:10.263Z,10.80
2019-05-09T14:06:39.704Z,10.77
2019-05-09T14:09:10.494Z,9.10
2019-05-09T14:11:40.354Z,9.87
2019-05-09T14:14:09.900Z,9.37
2019-05-09T14:16:39.508Z,10.27
2019-05-09T14:19:29.993Z,10.83
2019-05-09T14:21:41.872Z,10.00
2019-05-09T14:24:15.545Z,9.23
2019-05-09T14:26:42.732Z,10.63
2019-05-09T14:29:13.302Z,10.13
2019-05-09T14:31:43.121Z,9.90
2019-05-09T14:34:12.517Z,7.20
2019-05-09T14:36:45.401Z,8.17
2019-05-09T14:39:13.066Z,8.17
2019-05-09T14:41:42.514Z,9.53
2019-05-09T14:44:11.858Z,9.27
2019-05-09T14:46:41.279Z,7.47
2019-05-09T14:49:10.892Z,7.87
2019-05-09T14:51:40.701Z,7.13
2019-05-09T14:54:10.139Z,6.67
2019-05-09T14:56:41.752Z,6.07
2019-05-09T14:59:10.670Z,8.43
2019-05-09T15:01:43.654Z,6.33
2019-05-09T15:04:11.226Z,6.73
2019-05-09T15:06:40.590Z,7.67
2019-05-09T15:09:09.973Z,9.63
2019-05-09T15:11:39.926Z,7.07
2019-05-09T15:14:09.351Z,6.20
2019-05-09T15:16:39.297Z,6.60
2019-05-09T15:19:08.837Z,6.43
2019-05-09T15:21:38.575Z,6.07
2019-05-09T15:24:09.182Z,6.60
2019-05-09T15:26:38.900Z,6.43
2019-05-09T15:29:08.455Z,6.77
2019-05-09T15:31:39.268Z,6.60
2019-05-09T15:34:10.454Z,6.57
2019-05-09T15:36:40.026Z,6.80
2019-05-09T15:39:09.431Z,6.05
2019-05-09T15:41:38.873Z,5.40
2019-05-09T15:44:08.607Z,6.27
2019-05-09T15:46:48.811Z,5.23
